sensor_id;sensor_type;location;lat;lon;timestamp;P1;durP1;ratioP1;P2;durP2;ratioP2
19235;SDS011;9752;54.270;12.470;2022-12-24T00:00:50;25.90;;;14.33;;
19235;SDS011;9752;54.270;12.470;2022-12-24T00:05:56;25.17;;;14.83;;
19235;SDS011;9752;54.270;12.470;2022-12-24T00:10:59;27.17;;;15.97;;
19235;SDS011;9752;54.270;12.470;2022-12-24T00:16:01;22.63;;;13.63;;
19235;SDS011;9752;54.270;12.470;2022-12-24T00:21:02;29.47;;;15.97;;
19235;SDS011;9752;54.270;12.470;2022-12-24T00:26:07;30.93;;;14.77;;
19235;SDS011;9752;54.270;12.470;2022-12-24T00:31:09;32.00;;;16.30;;
19235;SDS011;9752;54.270;12.470;2022-12-24T00:36:12;31.70;;;15.97;;
19235;SDS011;9752;54.270;12.470;2022-12-24T00:41:16;31.27;;;16.90;;
19235;SDS011;9752;54.270;12.470;2022-12-24T00:46:35;41.47;;;18.10;;
19235;SDS011;9752;54.270;12.470;2022-12-24T00:51:38;31.23;;;13.30;;
19235;SDS011;9752;54.270;12.470;2022-12-24T00:56:41;34.23;;;14.40;;
19235;SDS011;9752;54.270;12.470;2022-12-24T01:01:43;20.03;;;11.30;;
19235;SDS011;9752;54.270;12.470;2022-12-24T01:06:45;30.53;;;14.27;;
19235;SDS011;9752;54.270;12.470;2022-12-24T01:11:48;27.03;;;13.20;;
19235;SDS011;9752;54.270;12.470;2022-12-24T01:16:49;25.50;;;12.10;;
19235;SDS011;9752;54.270;12.470;2022-12-24T01:21:51;28.80;;;13.03;;
19235;SDS011;9752;54.270;12.470;2022-12-24T01:26:54;21.83;;;11.90;;
19235;SDS011;9752;54.270;12.470;2022-12-24T01:31:56;29.60;;;13.10;;
19235;SDS011;9752;54.270;12.470;2022-12-24T01:36:57;23.13;;;13.53;;
19235;SDS011;9752;54.270;12.470;2022-12-24T01:42:00;28.80;;;14.37;;
19235;SDS011;9752;54.270;12.470;2022-12-24T01:47:20;26.03;;;13.63;;
19235;SDS011;9752;54.270;12.470;2022-12-24T01:52:27;26.60;;;14.33;;
19235;SDS011;9752;54.270;12.470;2022-12-24T01:57:33;25.60;;;14.70;;
19235;SDS011;9752;54.270;12.470;2022-12-24T02:02:38;33.53;;;15.43;;
19235;SDS011;9752;54.270;12.470;2022-12-24T02:07:41;30.50;;;16.13;;
19235;SDS011;9752;54.270;12.470;2022-12-24T02:12:44;31.03;;;15.13;;
19235;SDS011;9752;54.270;12.470;2022-12-24T02:17:50;30.57;;;15.27;;
19235;SDS011;9752;54.270;12.470;2022-12-24T02:23:08;32.07;;;17.20;;
19235;SDS011;9752;54.270;12.470;2022-12-24T02:28:23;24.27;;;12.67;;
19235;SDS011;9752;54.270;12.470;2022-12-24T02:33:46;32.00;;;14.60;;
19235;SDS011;9752;54.270;12.470;2022-12-24T02:38:57;28.97;;;15.60;;
19235;SDS011;9752;54.270;12.470;2022-12-24T02:44:03;27.53;;;14.80;;
19235;SDS011;9752;54.270;12.470;2022-12-24T02:49:06;33.47;;;16.27;;
19235;SDS011;9752;54.270;12.470;2022-12-24T02:54:08;35.83;;;17.13;;
19235;SDS011;9752;54.270;12.470;2022-12-24T02:59:14;31.40;;;14.87;;
19235;SDS011;9752;54.270;12.470;2022-12-24T03:04:42;28.67;;;14.53;;
19235;SDS011;9752;54.270;12.470;2022-12-24T03:10:01;30.37;;;14.30;;
19235;SDS011;9752;54.270;12.470;2022-12-24T03:15:12;35.63;;;16.03;;
19235;SDS011;9752;54.270;12.470;2022-12-24T03:20:18;28.13;;;15.57;;
19235;SDS011;9752;54.270;12.470;2022-12-24T03:25:23;30.43;;;14.33;;
19235;SDS011;9752;54.270;12.470;2022-12-24T03:30:27;30.63;;;15.60;;
19235;SDS011;9752;54.270;12.470;2022-12-24T03:35:30;30.77;;;14.97;;
19235;SDS011;9752;54.270;12.470;2022-12-24T03:40:32;28.90;;;14.80;;
19235;SDS011;9752;54.270;12.470;2022-12-24T03:45:34;26.23;;;15.13;;
19235;SDS011;9752;54.270;12.470;2022-12-24T03:50:37;29.13;;;15.03;;
19235;SDS011;9752;54.270;12.470;2022-12-24T03:55:39;29.17;;;16.23;;
19235;SDS011;9752;54.270;12.470;2022-12-24T04:00:40;23.53;;;14.87;;
19235;SDS011;9752;54.270;12.470;2022-12-24T04:05:44;32.10;;;17.10;;
19235;SDS011;9752;54.270;12.470;2022-12-24T04:10:45;31.10;;;15.23;;
19235;SDS011;9752;54.270;12.470;2022-12-24T04:15:55;32.67;;;16.83;;
19235;SDS011;9752;54.270;12.470;2022-12-24T04:20:58;31.33;;;16.83;;
19235;SDS011;9752;54.270;12.470;2022-12-24T04:26:00;30.97;;;16.07;;
19235;SDS011;9752;54.270;12.470;2022-12-24T04:31:04;41.17;;;18.43;;
19235;SDS011;9752;54.270;12.470;2022-12-24T04:36:09;36.33;;;16.87;;
19235;SDS011;9752;54.270;12.470;2022-12-24T04:41:14;27.27;;;14.17;;
19235;SDS011;9752;54.270;12.470;2022-12-24T04:46:18;31.30;;;16.70;;
19235;SDS011;9752;54.270;12.470;2022-12-24T04:51:23;36.73;;;17.27;;
19235;SDS011;9752;54.270;12.470;2022-12-24T04:56:27;35.10;;;17.47;;
19235;SDS011;9752;54.270;12.470;2022-12-24T05:01:31;36.03;;;18.20;;
19235;SDS011;9752;54.270;12.470;2022-12-24T05:06:34;30.57;;;16.73;;
19235;SDS011;9752;54.270;12.470;2022-12-24T05:11:36;29.67;;;15.57;;
19235;SDS011;9752;54.270;12.470;2022-12-24T05:16:38;30.87;;;16.00;;
19235;SDS011;9752;54.270;12.470;2022-12-24T05:21:41;25.70;;;14.77;;
19235;SDS011;9752;54.270;12.470;2022-12-24T05:26:43;31.27;;;15.53;;
19235;SDS011;9752;54.270;12.470;2022-12-24T05:31:47;38.47;;;16.90;;
19235;SDS011;9752;54.270;12.470;2022-12-24T05:36:50;30.27;;;16.63;;
19235;SDS011;9752;54.270;12.470;2022-12-24T05:41:51;31.07;;;15.93;;
19235;SDS011;9752;54.270;12.470;2022-12-24T05:46:53;31.17;;;15.93;;
19235;SDS011;9752;54.270;12.470;2022-12-24T05:51:56;31.03;;;15.47;;
19235;SDS011;9752;54.270;12.470;2022-12-24T05:56:58;32.43;;;16.20;;
19235;SDS011;9752;54.270;12.470;2022-12-24T06:01:59;35.83;;;15.87;;
19235;SDS011;9752;54.270;12.470;2022-12-24T06:07:02;28.63;;;15.17;;
19235;SDS011;9752;54.270;12.470;2022-12-24T06:12:04;27.47;;;15.50;;
19235;SDS011;9752;54.270;12.470;2022-12-24T06:17:06;36.37;;;17.43;;
19235;SDS011;9752;54.270;12.470;2022-12-24T06:22:09;26.90;;;15.30;;
19235;SDS011;9752;54.270;12.470;2022-12-24T06:27:11;30.97;;;15.70;;
19235;SDS011;9752;54.270;12.470;2022-12-24T06:32:12;30.10;;;15.63;;
19235;SDS011;9752;54.270;12.470;2022-12-24T06:37:16;26.00;;;15.03;;
19235;SDS011;9752;54.270;12.470;2022-12-24T06:42:18;28.80;;;16.07;;
19235;SDS011;9752;54.270;12.470;2022-12-24T06:47:20;20.00;;;12.10;;
19235;SDS011;9752;54.270;12.470;2022-12-24T06:52:23;25.63;;;14.70;;
19235;SDS011;9752;54.270;12.470;2022-12-24T06:57:24;39.43;;;17.53;;
19235;SDS011;9752;54.270;12.470;2022-12-24T07:02:26;30.53;;;16.03;;
19235;SDS011;9752;54.270;12.470;2022-12-24T07:07:29;21.23;;;13.33;;
19235;SDS011;9752;54.270;12.470;2022-12-24T07:12:31;27.03;;;15.70;;
19235;SDS011;9752;54.270;12.470;2022-12-24T07:17:33;24.10;;;14.00;;
19235;SDS011;9752;54.270;12.470;2022-12-24T07:22:37;23.57;;;12.63;;
19235;SDS011;9752;54.270;12.470;2022-12-24T07:27:39;18.33;;;11.80;;
19235;SDS011;9752;54.270;12.470;2022-12-24T07:32:41;19.40;;;13.47;;
19235;SDS011;9752;54.270;12.470;2022-12-24T07:37:44;23.63;;;12.70;;
19235;SDS011;9752;54.270;12.470;2022-12-24T07:42:46;18.20;;;11.17;;
19235;SDS011;9752;54.270;12.470;2022-12-24T07:47:47;17.03;;;9.87;;
19235;SDS011;9752;54.270;12.470;2022-12-24T07:52:51;17.00;;;9.87;;
19235;SDS011;9752;54.270;12.470;2022-12-24T07:57:52;17.50;;;11.90;;
19235;SDS011;9752;54.270;12.470;2022-12-24T08:02:54;22.50;;;11.40;;
19235;SDS011;9752;54.270;12.470;2022-12-24T08:07:59;20.37;;;12.37;;
19235;SDS011;9752;54.270;12.470;2022-12-24T08:13:00;21.83;;;11.60;;
19235;SDS011;9752;54.270;12.470;2022-12-24T08:18:02;22.70;;;11.63;;
19235;SDS011;9752;54.270;12.470;2022-12-24T08:23:05;18.93;;;11.07;;
19235;SDS011;9752;54.270;12.470;2022-12-24T08:28:08;19.43;;;11.17;;
19235;SDS011;9752;54.270;12.470;2022-12-24T08:33:10;21.17;;;10.13;;
19235;SDS011;9752;54.270;12.470;2022-12-24T08:38:13;12.97;;;7.50;;
19235;SDS011;9752;54.270;12.470;2022-12-24T08:43:16;10.97;;;7.70;;
19235;SDS011;9752;54.270;12.470;2022-12-24T08:48:18;12.00;;;8.13;;
19235;SDS011;9752;54.270;12.470;2022-12-24T08:53:21;17.70;;;7.40;;
19235;SDS011;9752;54.270;12.470;2022-12-24T08:58:23;11.10;;;7.17;;
19235;SDS011;9752;54.270;12.470;2022-12-24T09:03:25;10.20;;;7.27;;
19235;SDS011;9752;54.270;12.470;2022-12-24T09:08:28;13.40;;;7.27;;
19235;SDS011;9752;54.270;12.470;2022-12-24T09:13:30;13.23;;;6.50;;
19235;SDS011;9752;54.270;12.470;2022-12-24T09:18:32;10.03;;;6.20;;
19235;SDS011;9752;54.270;12.470;2022-12-24T09:23:35;11.90;;;5.77;;
19235;SDS011;9752;54.270;12.470;2022-12-24T09:28:38;9.50;;;5.33;;
19235;SDS011;9752;54.270;12.470;2022-12-24T09:33:41;6.10;;;5.43;;
19235;SDS011;9752;54.270;12.470;2022-12-24T09:38:45;9.20;;;5.90;;
19235;SDS011;9752;54.270;12.470;2022-12-24T09:43:48;8.23;;;5.87;;
19235;SDS011;9752;54.270;12.470;2022-12-24T09:48:54;8.93;;;5.87;;
19235;SDS011;9752;54.270;12.470;2022-12-24T09:54:04;8.93;;;6.60;;
19235;SDS011;9752;54.270;12.470;2022-12-24T09:59:13;8.67;;;6.27;;
19235;SDS011;9752;54.270;12.470;2022-12-24T10:04:17;10.70;;;6.03;;
19235;SDS011;9752;54.270;12.470;2022-12-24T10:09:23;10.37;;;6.60;;
19235;SDS011;9752;54.270;12.470;2022-12-24T10:14:44;8.40;;;5.37;;
19235;SDS011;9752;54.270;12.470;2022-12-24T10:19:55;8.13;;;6.30;;
19235;SDS011;9752;54.270;12.470;2022-12-24T10:25:18;8.37;;;6.20;;
19235;SDS011;9752;54.270;12.470;2022-12-24T10:30:25;9.87;;;6.17;;
19235;SDS011;9752;54.270;12.470;2022-12-24T10:35:28;8.70;;;7.07;;
19235;SDS011;9752;54.270;12.470;2022-12-24T10:40:39;10.80;;;7.67;;
19235;SDS011;9752;54.270;12.470;2022-12-24T10:45:45;7.43;;;6.60;;
19235;SDS011;9752;54.270;12.470;2022-12-24T10:50:51;6.40;;;5.37;;
19235;SDS011;9752;54.270;12.470;2022-12-24T10:56:01;8.33;;;6.33;;
19235;SDS011;9752;54.270;12.470;2022-12-24T11:01:05;9.27;;;6.70;;
19235;SDS011;9752;54.270;12.470;2022-12-24T11:06:08;7.23;;;5.93;;
19235;SDS011;9752;54.270;12.470;2022-12-24T11:11:14;6.23;;;5.40;;
19235;SDS011;9752;54.270;12.470;2022-12-24T11:16:20;6.47;;;5.57;;
19235;SDS011;9752;54.270;12.470;2022-12-24T11:21:27;6.77;;;5.80;;
19235;SDS011;9752;54.270;12.470;2022-12-24T11:26:32;8.57;;;5.60;;
19235;SDS011;9752;54.270;12.470;2022-12-24T11:31:35;9.27;;;6.37;;
19235;SDS011;9752;54.270;12.470;2022-12-24T11:36:37;8.10;;;6.40;;
19235;SDS011;9752;54.270;12.470;2022-12-24T11:41:40;8.87;;;6.80;;
19235;SDS011;9752;54.270;12.470;2022-12-24T11:46:42;5.50;;;4.90;;
19235;SDS011;9752;54.270;12.470;2022-12-24T11:51:57;6.67;;;5.97;;
19235;SDS011;9752;54.270;12.470;2022-12-24T11:57:13;8.17;;;5.63;;
19235;SDS011;9752;54.270;12.470;2022-12-24T12:02:20;6.97;;;5.67;;
19235;SDS011;9752;54.270;12.470;2022-12-24T12:07:27;7.60;;;6.00;;
19235;SDS011;9752;54.270;12.470;2022-12-24T12:12:33;13.20;;;7.00;;
19235;SDS011;9752;54.270;12.470;2022-12-24T12:17:39;9.50;;;6.97;;
19235;SDS011;9752;54.270;12.470;2022-12-24T12:22:48;6.97;;;6.20;;
19235;SDS011;9752;54.270;12.470;2022-12-24T12:27:57;8.23;;;5.30;;
19235;SDS011;9752;54.270;12.470;2022-12-24T12:33:04;5.80;;;4.50;;
19235;SDS011;9752;54.270;12.470;2022-12-24T12:38:18;8.70;;;5.97;;
19235;SDS011;9752;54.270;12.470;2022-12-24T12:43:27;6.03;;;5.07;;
19235;SDS011;9752;54.270;12.470;2022-12-24T12:48:46;6.43;;;5.67;;
19235;SDS011;9752;54.270;12.470;2022-12-24T12:54:04;7.10;;;6.33;;
19235;SDS011;9752;54.270;12.470;2022-12-24T12:59:24;8.77;;;6.50;;
19235;SDS011;9752;54.270;12.470;2022-12-24T13:10:19;6.97;;;6.33;;
19235;SDS011;9752;54.270;12.470;2022-12-24T13:21:35;5.57;;;5.03;;
19235;SDS011;9752;54.270;12.470;2022-12-24T13:26:42;7.77;;;4.70;;
19235;SDS011;9752;54.270;12.470;2022-12-24T13:37:40;8.13;;;5.70;;
19235;SDS011;9752;54.270;12.470;2022-12-24T13:42:46;7.80;;;5.13;;
19235;SDS011;9752;54.270;12.470;2022-12-24T13:48:13;8.57;;;6.17;;
19235;SDS011;9752;54.270;12.470;2022-12-24T13:53:28;6.07;;;5.47;;
19235;SDS011;9752;54.270;12.470;2022-12-24T13:58:32;5.90;;;5.30;;
19235;SDS011;9752;54.270;12.470;2022-12-24T14:03:40;5.20;;;4.70;;
19235;SDS011;9752;54.270;12.470;2022-12-24T14:08:44;8.67;;;5.07;;
19235;SDS011;9752;54.270;12.470;2022-12-24T14:13:51;5.83;;;5.27;;
19235;SDS011;9752;54.270;12.470;2022-12-24T14:19:00;9.13;;;5.50;;
19235;SDS011;9752;54.270;12.470;2022-12-24T14:24:12;9.90;;;6.40;;
19235;SDS011;9752;54.270;12.470;2022-12-24T14:29:18;10.63;;;5.67;;
19235;SDS011;9752;54.270;12.470;2022-12-24T14:34:26;7.10;;;5.37;;
19235;SDS011;9752;54.270;12.470;2022-12-24T14:39:29;6.47;;;5.50;;
19235;SDS011;9752;54.270;12.470;2022-12-24T14:44:37;7.33;;;5.70;;
19235;SDS011;9752;54.270;12.470;2022-12-24T14:49:48;7.07;;;6.37;;
19235;SDS011;9752;54.270;12.470;2022-12-24T15:00:29;10.20;;;5.87;;
19235;SDS011;9752;54.270;12.470;2022-12-24T15:05:32;8.70;;;5.53;;
19235;SDS011;9752;54.270;12.470;2022-12-24T15:10:34;10.17;;;7.03;;
19235;SDS011;9752;54.270;12.470;2022-12-24T15:15:40;9.77;;;6.07;;
19235;SDS011;9752;54.270;12.470;2022-12-24T15:20:46;10.50;;;7.10;;
19235;SDS011;9752;54.270;12.470;2022-12-24T15:25:51;12.07;;;7.17;;
19235;SDS011;9752;54.270;12.470;2022-12-24T15:31:03;8.23;;;6.50;;
19235;SDS011;9752;54.270;12.470;2022-12-24T15:36:09;11.27;;;6.97;;
19235;SDS011;9752;54.270;12.470;2022-12-24T15:41:15;13.37;;;8.40;;
19235;SDS011;9752;54.270;12.470;2022-12-24T15:46:19;13.37;;;9.93;;
19235;SDS011;9752;54.270;12.470;2022-12-24T15:51:26;11.63;;;8.03;;
19235;SDS011;9752;54.270;12.470;2022-12-24T15:56:31;13.20;;;8.30;;
19235;SDS011;9752;54.270;12.470;2022-12-24T16:01:35;16.77;;;10.37;;
19235;SDS011;9752;54.270;12.470;2022-12-24T16:06:51;13.43;;;9.27;;
19235;SDS011;9752;54.270;12.470;2022-12-24T16:11:54;12.90;;;10.13;;
19235;SDS011;9752;54.270;12.470;2022-12-24T16:16:56;20.77;;;11.67;;
19235;SDS011;9752;54.270;12.470;2022-12-24T16:21:59;13.23;;;9.33;;
19235;SDS011;9752;54.270;12.470;2022-12-24T16:27:23;13.67;;;9.17;;
19235;SDS011;9752;54.270;12.470;2022-12-24T16:32:27;11.97;;;8.93;;
19235;SDS011;9752;54.270;12.470;2022-12-24T16:37:33;13.37;;;8.10;;
19235;SDS011;9752;54.270;12.470;2022-12-24T16:42:35;14.73;;;9.53;;
19235;SDS011;9752;54.270;12.470;2022-12-24T16:47:54;11.53;;;7.70;;
19235;SDS011;9752;54.270;12.470;2022-12-24T16:52:59;20.53;;;10.07;;
19235;SDS011;9752;54.270;12.470;2022-12-24T16:58:01;13.13;;;8.47;;
19235;SDS011;9752;54.270;12.470;2022-12-24T17:03:02;14.17;;;9.33;;
19235;SDS011;9752;54.270;12.470;2022-12-24T17:08:06;13.07;;;8.63;;
19235;SDS011;9752;54.270;12.470;2022-12-24T17:13:07;18.27;;;9.40;;
19235;SDS011;9752;54.270;12.470;2022-12-24T17:18:09;14.77;;;9.60;;
19235;SDS011;9752;54.270;12.470;2022-12-24T17:23:12;10.27;;;8.97;;
19235;SDS011;9752;54.270;12.470;2022-12-24T17:28:14;24.37;;;14.13;;
19235;SDS011;9752;54.270;12.470;2022-12-24T17:33:16;28.27;;;16.03;;
19235;SDS011;9752;54.270;12.470;2022-12-24T17:38:19;20.07;;;14.60;;
19235;SDS011;9752;54.270;12.470;2022-12-24T17:43:20;29.63;;;15.70;;
19235;SDS011;9752;54.270;12.470;2022-12-24T17:48:22;37.67;;;21.53;;
19235;SDS011;9752;54.270;12.470;2022-12-24T17:53:25;27.40;;;13.73;;
19235;SDS011;9752;54.270;12.470;2022-12-24T17:58:27;27.30;;;15.40;;
19235;SDS011;9752;54.270;12.470;2022-12-24T18:03:29;30.70;;;17.87;;
19235;SDS011;9752;54.270;12.470;2022-12-24T18:08:32;26.77;;;14.63;;
19235;SDS011;9752;54.270;12.470;2022-12-24T18:13:34;31.63;;;17.50;;
19235;SDS011;9752;54.270;12.470;2022-12-24T18:18:36;39.33;;;18.53;;
19235;SDS011;9752;54.270;12.470;2022-12-24T18:23:41;49.50;;;22.43;;
19235;SDS011;9752;54.270;12.470;2022-12-24T18:28:43;28.40;;;16.87;;
19235;SDS011;9752;54.270;12.470;2022-12-24T18:33:47;38.93;;;19.20;;
19235;SDS011;9752;54.270;12.470;2022-12-24T18:38:51;67.77;;;25.03;;
19235;SDS011;9752;54.270;12.470;2022-12-24T18:43:53;36.60;;;16.73;;
19235;SDS011;9752;54.270;12.470;2022-12-24T18:48:56;32.60;;;16.97;;
19235;SDS011;9752;54.270;12.470;2022-12-24T18:54:00;105.57;;;34.00;;
19235;SDS011;9752;54.270;12.470;2022-12-24T18:59:02;183.90;;;47.93;;
19235;SDS011;9752;54.270;12.470;2022-12-24T19:04:04;36.43;;;17.87;;
19235;SDS011;9752;54.270;12.470;2022-12-24T19:09:07;46.93;;;19.97;;
19235;SDS011;9752;54.270;12.470;2022-12-24T19:14:10;102.43;;;28.67;;
19235;SDS011;9752;54.270;12.470;2022-12-24T19:19:13;182.47;;;48.13;;
19235;SDS011;9752;54.270;12.470;2022-12-24T19:24:16;39.07;;;19.27;;
19235;SDS011;9752;54.270;12.470;2022-12-24T19:29:19;47.70;;;17.93;;
19235;SDS011;9752;54.270;12.470;2022-12-24T19:34:21;220.77;;;55.57;;
19235;SDS011;9752;54.270;12.470;2022-12-24T19:39:24;90.93;;;27.77;;
19235;SDS011;9752;54.270;12.470;2022-12-24T19:44:26;73.70;;;24.37;;
19235;SDS011;9752;54.270;12.470;2022-12-24T19:49:28;41.50;;;20.07;;
19235;SDS011;9752;54.270;12.470;2022-12-24T19:54:31;71.63;;;26.60;;
19235;SDS011;9752;54.270;12.470;2022-12-24T19:59:33;111.03;;;37.97;;
19235;SDS011;9752;54.270;12.470;2022-12-24T20:04:35;221.47;;;55.90;;
19235;SDS011;9752;54.270;12.470;2022-12-24T20:09:39;71.13;;;27.13;;
19235;SDS011;9752;54.270;12.470;2022-12-24T20:14:40;59.97;;;22.73;;
19235;SDS011;9752;54.270;12.470;2022-12-24T20:19:42;88.77;;;29.63;;
19235;SDS011;9752;54.270;12.470;2022-12-24T20:24:45;179.77;;;45.17;;
19235;SDS011;9752;54.270;12.470;2022-12-24T20:29:47;194.23;;;49.23;;
19235;SDS011;9752;54.270;12.470;2022-12-24T20:34:49;207.33;;;49.03;;
19235;SDS011;9752;54.270;12.470;2022-12-24T20:39:52;50.13;;;23.93;;
19235;SDS011;9752;54.270;12.470;2022-12-24T20:44:54;180.27;;;47.30;;
19235;SDS011;9752;54.270;12.470;2022-12-24T20:49:56;74.27;;;27.83;;
19235;SDS011;9752;54.270;12.470;2022-12-24T20:54:59;159.03;;;45.03;;
19235;SDS011;9752;54.270;12.470;2022-12-24T21:00:00;196.73;;;50.00;;
19235;SDS011;9752;54.270;12.470;2022-12-24T21:05:02;60.67;;;25.27;;
19235;SDS011;9752;54.270;12.470;2022-12-24T21:10:07;58.70;;;25.67;;
19235;SDS011;9752;54.270;12.470;2022-12-24T21:15:10;67.57;;;29.33;;
19235;SDS011;9752;54.270;12.470;2022-12-24T21:20:12;45.70;;;23.73;;
19235;SDS011;9752;54.270;12.470;2022-12-24T21:25:16;150.47;;;45.53;;
19235;SDS011;9752;54.270;12.470;2022-12-24T21:30:18;73.60;;;31.17;;
19235;SDS011;9752;54.270;12.470;2022-12-24T21:35:19;64.03;;;26.17;;
19235;SDS011;9752;54.270;12.470;2022-12-24T21:40:23;59.80;;;27.73;;
19235;SDS011;9752;54.270;12.470;2022-12-24T21:45:24;104.37;;;39.63;;
19235;SDS011;9752;54.270;12.470;2022-12-24T21:50:26;56.53;;;27.60;;
19235;SDS011;9752;54.270;12.470;2022-12-24T21:55:46;88.70;;;38.63;;
19235;SDS011;9752;54.270;12.470;2022-12-24T22:00:49;83.90;;;36.57;;
19235;SDS011;9752;54.270;12.470;2022-12-24T22:05:51;69.80;;;30.90;;
19235;SDS011;9752;54.270;12.470;2022-12-24T22:10:54;46.93;;;23.83;;
19235;SDS011;9752;54.270;12.470;2022-12-24T22:16:26;45.97;;;23.57;;
19235;SDS011;9752;54.270;12.470;2022-12-24T22:21:29;47.20;;;26.00;;
19235;SDS011;9752;54.270;12.470;2022-12-24T22:26:32;76.97;;;30.83;;
19235;SDS011;9752;54.270;12.470;2022-12-24T22:31:34;94.20;;;35.50;;
19235;SDS011;9752;54.270;12.470;2022-12-24T22:36:36;36.13;;;21.40;;
19235;SDS011;9752;54.270;12.470;2022-12-24T22:41:39;72.97;;;28.27;;
19235;SDS011;9752;54.270;12.470;2022-12-24T22:46:41;125.03;;;37.83;;
19235;SDS011;9752;54.270;12.470;2022-12-24T22:51:42;127.17;;;40.80;;
19235;SDS011;9752;54.270;12.470;2022-12-24T22:56:46;66.37;;;28.97;;
19235;SDS011;9752;54.270;12.470;2022-12-24T23:01:47;92.20;;;35.30;;
19235;SDS011;9752;54.270;12.470;2022-12-24T23:06:51;78.37;;;30.20;;
19235;SDS011;9752;54.270;12.470;2022-12-24T23:11:54;105.80;;;34.57;;
19235;SDS011;9752;54.270;12.470;2022-12-24T23:16:56;79.60;;;32.47;;
19235;SDS011;9752;54.270;12.470;2022-12-24T23:21:58;83.93;;;32.47;;
19235;SDS011;9752;54.270;12.470;2022-12-24T23:27:01;95.00;;;35.20;;
19235;SDS011;9752;54.270;12.470;2022-12-24T23:32:03;103.10;;;36.23;;
19235;SDS011;9752;54.270;12.470;2022-12-24T23:37:05;73.13;;;27.77;;
19235;SDS011;9752;54.270;12.470;2022-12-24T23:42:08;70.33;;;33.70;;
19235;SDS011;9752;54.270;12.470;2022-12-24T23:47:10;92.63;;;33.80;;
19235;SDS011;9752;54.270;12.470;2022-12-24T23:52:11;122.53;;;38.87;;
19235;SDS011;9752;54.270;12.470;2022-12-24T23:57:14;83.53;;;30.67;;
